createdAt,value
2019-02-18T00:00:01.585Z,0.00
2019-02-18T00:01:01.578Z,0.00
2019-02-18T00:02:01.570Z,0.00
2019-02-18T00:03:01.588Z,0.00
2019-02-18T00:04:01.541Z,0.00
2019-02-18T00:05:01.535Z,0.00
2019-02-18T00:06:01.521Z,0.00
2019-02-18T00:07:01.516Z,0.00
2019-02-18T00:08:01.512Z,0.00
2019-02-18T00:09:01.537Z,0.00
2019-02-18T00:10:01.487Z,0.00
2019-02-18T00:11:01.481Z,0.00
2019-02-18T00:12:01.466Z,0.00
2019-02-18T00:13:01.457Z,0.00
2019-02-18T00:14:01.454Z,0.00
2019-02-18T00:15:01.493Z,0.00
2019-02-18T00:16:01.429Z,0.00
2019-02-18T00:17:01.417Z,0.00
2019-02-18T00:18:01.401Z,0.00
2019-02-18T00:19:01.396Z,0.00
2019-02-18T00:20:01.390Z,0.00
2019-02-18T00:21:01.494Z,0.00
2019-02-18T00:22:01.368Z,0.00
2019-02-18T00:23:01.358Z,0.00
2019-02-18T00:24:01.363Z,0.00
2019-02-18T00:25:01.335Z,0.00
2019-02-18T00:26:01.316Z,0.00
2019-02-18T00:27:01.337Z,0.00
2019-02-18T00:28:01.306Z,0.00
2019-02-18T00:29:01.318Z,0.00
2019-02-18T00:30:01.282Z,0.00
2019-02-18T00:31:01.298Z,0.00
2019-02-18T00:32:01.258Z,0.00
2019-02-18T00:33:01.252Z,0.00
2019-02-18T00:34:01.248Z,0.00
2019-02-18T00:35:01.232Z,0.00
2019-02-18T00:36:01.234Z,0.00
2019-02-18T00:37:01.205Z,0.00
2019-02-18T00:38:01.196Z,0.00
2019-02-18T00:39:01.189Z,0.00
2019-02-18T00:40:01.179Z,0.00
2019-02-18T00:41:01.186Z,0.00
2019-02-18T00:42:01.161Z,0.00
2019-02-18T00:43:01.153Z,0.00
2019-02-18T00:44:01.133Z,0.00
2019-02-18T00:45:01.123Z,0.00
2019-02-18T00:46:01.135Z,0.00
2019-02-18T00:47:01.102Z,0.00
2019-02-18T00:48:01.101Z,0.00
2019-02-18T00:49:01.087Z,0.00
2019-02-18T00:50:01.076Z,0.00
2019-02-18T00:51:01.083Z,0.00
2019-02-18T00:52:01.057Z,0.00
2019-02-18T00:53:01.046Z,0.00
2019-02-18T00:54:01.038Z,0.00
2019-02-18T00:55:01.028Z,0.00
2019-02-18T00:56:01.044Z,0.00
2019-02-18T00:57:01.025Z,0.00
2019-02-18T00:58:00.989Z,0.00
2019-02-18T00:59:00.980Z,0.00
2019-02-18T01:00:00.973Z,0.00
2019-02-18T01:01:00.963Z,0.00
2019-02-18T01:02:00.975Z,0.00
2019-02-18T01:03:00.946Z,0.00
2019-02-18T01:04:00.928Z,0.00
2019-02-18T01:05:00.916Z,0.00
2019-02-18T01:06:00.912Z,0.00
2019-02-18T01:07:00.932Z,0.00
2019-02-18T01:08:00.884Z,0.00
2019-02-18T01:09:00.875Z,0.00
2019-02-18T01:10:00.862Z,0.00
2019-02-18T01:11:00.857Z,0.00
2019-02-18T01:12:00.850Z,0.00
2019-02-18T01:13:00.863Z,0.00
2019-02-18T01:14:00.836Z,0.00
2019-02-18T01:15:00.819Z,0.00
2019-02-18T01:16:00.803Z,0.00
2019-02-18T01:17:00.790Z,0.00
2019-02-18T01:18:00.809Z,0.00
2019-02-18T01:19:00.772Z,0.00
2019-02-18T01:20:00.764Z,0.00
2019-02-18T01:21:00.754Z,0.00
2019-02-18T01:22:00.737Z,0.00
2019-02-18T01:23:00.727Z,0.00
2019-02-18T01:24:00.737Z,0.00
2019-02-18T01:25:00.712Z,0.00
2019-02-18T01:26:00.702Z,0.00
2019-02-18T01:27:00.696Z,0.00
2019-02-18T01:28:00.684Z,0.00
2019-02-18T01:29:00.685Z,0.00
2019-02-18T01:30:00.660Z,0.00
2019-02-18T01:31:00.645Z,0.00
2019-02-18T01:32:00.644Z,0.00
2019-02-18T01:33:00.636Z,0.00
2019-02-18T01:34:00.651Z,0.00
2019-02-18T01:35:00.610Z,0.00
2019-02-18T01:36:00.604Z,0.00
2019-02-18T01:37:00.596Z,0.00
2019-02-18T01:38:00.581Z,0.00
2019-02-18T01:39:00.571Z,0.00
2019-02-18T01:40:00.572Z,0.00
2019-02-18T01:41:00.542Z,0.00
2019-02-18T01:42:00.537Z,0.00
2019-02-18T01:43:00.523Z,0.00
2019-02-18T01:44:00.543Z,0.00
2019-02-18T01:45:00.507Z,0.00
2019-02-18T01:46:00.525Z,0.00
2019-02-18T01:47:00.486Z,0.00
2019-02-18T01:48:00.477Z,0.00
2019-02-18T01:49:00.461Z,0.00
2019-02-18T01:50:00.452Z,0.00
2019-02-18T01:51:00.450Z,0.00
2019-02-18T01:52:00.454Z,0.00
2019-02-18T01:53:00.424Z,0.00
2019-02-18T01:54:00.407Z,0.00
2019-02-18T01:55:00.398Z,0.00
2019-02-18T01:56:00.397Z,0.00
2019-02-18T01:57:00.414Z,0.00
2019-02-18T01:58:00.372Z,0.00
2019-02-18T01:59:00.360Z,0.00
2019-02-18T02:00:00.345Z,0.00
2019-02-18T02:01:00.339Z,0.00
2019-02-18T02:02:00.350Z,0.00
2019-02-18T02:03:00.312Z,0.00
2019-02-18T02:04:00.307Z,0.00
2019-02-18T02:05:00.379Z,0.00
2019-02-18T02:06:00.288Z,0.00
2019-02-18T02:07:00.309Z,0.00
2019-02-18T02:08:00.262Z,0.00
2019-02-18T02:09:00.251Z,0.00
2019-02-18T02:10:00.344Z,0.00
2019-02-18T02:11:00.237Z,0.00
2019-02-18T02:12:00.246Z,0.00
2019-02-18T02:13:00.208Z,0.00
2019-02-18T02:14:00.198Z,0.00
2019-02-18T02:15:00.220Z,0.00
2019-02-18T02:16:00.183Z,0.00
2019-02-18T02:17:00.194Z,0.00
2019-02-18T02:18:00.164Z,0.00
2019-02-18T02:19:00.158Z,0.00
2019-02-18T02:20:00.319Z,0.00
2019-02-18T02:21:00.126Z,0.00
2019-02-18T02:22:00.149Z,0.00
2019-02-18T02:23:00.109Z,0.00
2019-02-18T02:24:00.106Z,0.00
2019-02-18T02:25:00.217Z,0.00
2019-02-18T02:26:00.073Z,0.00
2019-02-18T02:27:00.072Z,0.00
2019-02-18T02:28:00.079Z,0.00
2019-02-18T02:29:00.049Z,0.00
2019-02-18T02:30:00.040Z,0.00
2019-02-18T02:31:01.268Z,0.00
2019-02-18T02:32:00.017Z,0.00
2019-02-18T02:33:00.033Z,0.00
2019-02-18T02:33:59.991Z,0.00
2019-02-18T02:34:59.985Z,0.00
2019-02-18T02:35:59.976Z,0.00
2019-02-18T02:36:59.966Z,0.00
2019-02-18T02:38:07.319Z,0.00
2019-02-18T02:39:00.964Z,0.00
2019-02-18T02:39:59.931Z,0.00
2019-02-18T02:40:59.917Z,0.00
2019-02-18T02:41:59.912Z,0.00
2019-02-18T02:42:59.905Z,0.00
2019-02-18T02:43:59.923Z,0.00
2019-02-18T02:44:59.875Z,0.00
2019-02-18T02:45:59.865Z,0.00
2019-02-18T02:46:59.868Z,0.00
2019-02-18T02:47:59.852Z,0.00
2019-02-18T02:48:59.847Z,0.00
2019-02-18T02:49:59.852Z,0.00
2019-02-18T02:50:59.820Z,0.00
2019-02-18T02:51:59.801Z,0.00
2019-02-18T02:52:59.793Z,0.00
2019-02-18T02:53:59.788Z,0.00
2019-02-18T02:54:59.789Z,0.00
2019-02-18T02:55:59.763Z,0.00
2019-02-18T02:56:59.754Z,0.00
2019-02-18T02:57:59.736Z,0.00
2019-02-18T02:58:59.738Z,0.00
2019-02-18T02:59:59.751Z,0.00
2019-02-18T03:00:59.718Z,0.00
2019-02-18T03:01:59.701Z,0.00
2019-02-18T03:02:59.744Z,0.00
2019-02-18T03:03:59.676Z,0.00
2019-02-18T03:04:59.688Z,0.00
2019-02-18T03:05:59.655Z,0.00
2019-02-18T03:06:59.644Z,0.00
2019-02-18T03:07:59.641Z,0.00
2019-02-18T03:08:59.630Z,0.00
2019-02-18T03:09:59.649Z,0.00
2019-02-18T03:10:59.607Z,0.00
2019-02-18T03:11:59.590Z,0.00
2019-02-18T03:12:59.580Z,0.00
2019-02-18T03:13:59.580Z,0.00
2019-02-18T03:14:59.564Z,0.00
2019-02-18T03:15:59.564Z,0.00
2019-02-18T03:16:59.551Z,0.00
2019-02-18T03:17:59.538Z,0.00
2019-02-18T03:18:59.516Z,0.00
2019-02-18T03:19:59.513Z,0.00
2019-02-18T03:20:59.522Z,0.00
2019-02-18T03:21:59.512Z,0.00
2019-02-18T03:22:59.481Z,0.00
2019-02-18T03:23:59.470Z,0.00
2019-02-18T03:24:59.455Z,0.00
2019-02-18T03:25:59.443Z,0.00
2019-02-18T03:26:59.459Z,0.00
2019-02-18T03:27:59.432Z,0.00
2019-02-18T03:28:59.418Z,0.00
2019-02-18T03:29:59.408Z,0.00
2019-02-18T03:30:59.400Z,0.00
2019-02-18T03:31:59.407Z,0.00
2019-02-18T03:32:59.385Z,0.00
2019-02-18T03:33:59.374Z,0.00
2019-02-18T03:35:00.598Z,0.00
2019-02-18T03:35:59.342Z,0.00
2019-02-18T03:36:59.357Z,0.00
2019-02-18T03:37:59.319Z,0.00
2019-02-18T03:38:59.308Z,0.00
2019-02-18T03:39:59.303Z,0.00
2019-02-18T03:41:03.259Z,0.00
2019-02-18T03:41:59.301Z,0.00
2019-02-18T03:42:59.273Z,0.00
2019-02-18T03:43:59.255Z,0.00
2019-02-18T03:44:59.252Z,0.00
2019-02-18T03:45:59.239Z,0.00
2019-02-18T03:46:59.251Z,0.00
2019-02-18T03:47:59.236Z,0.00
2019-02-18T03:48:59.225Z,0.00
2019-02-18T03:49:59.192Z,0.00
2019-02-18T03:50:59.185Z,0.00
2019-02-18T03:51:59.174Z,0.00
2019-02-18T03:52:59.184Z,0.00
2019-02-18T03:53:59.180Z,0.00
2019-02-18T03:54:59.147Z,0.00
2019-02-18T03:55:59.128Z,0.00
2019-02-18T03:56:59.117Z,0.00
2019-02-18T03:57:59.108Z,0.00
2019-02-18T03:58:59.116Z,0.00
2019-02-18T03:59:59.106Z,0.00
2019-02-18T04:00:59.081Z,0.00
2019-02-18T04:01:59.064Z,0.00
2019-02-18T04:02:59.072Z,0.00
2019-02-18T04:03:59.083Z,0.00
2019-02-18T04:04:59.044Z,0.00
2019-02-18T04:05:59.033Z,0.00
2019-02-18T04:06:59.020Z,0.00
2019-02-18T04:07:59.005Z,0.00
2019-02-18T04:08:59.014Z,0.00
2019-02-18T04:09:58.985Z,0.00
2019-02-18T04:10:58.978Z,0.00
2019-02-18T04:11:58.967Z,0.00
2019-02-18T04:12:58.959Z,0.00
2019-02-18T04:13:58.965Z,0.00
2019-02-18T04:14:58.940Z,0.00
2019-02-18T04:15:58.918Z,0.00
2019-02-18T04:16:58.917Z,0.00
2019-02-18T04:17:58.904Z,0.00
2019-02-18T04:18:58.932Z,0.00
2019-02-18T04:19:58.885Z,0.00
2019-02-18T04:20:58.866Z,0.00
2019-02-18T04:21:58.859Z,0.00
2019-02-18T04:22:58.865Z,0.00
2019-02-18T04:23:58.841Z,0.00
2019-02-18T04:24:58.850Z,0.00
2019-02-18T04:25:58.821Z,0.00
2019-02-18T04:26:58.809Z,0.00
2019-02-18T04:27:58.794Z,0.00
2019-02-18T04:28:58.788Z,0.00
2019-02-18T04:29:58.791Z,0.00
2019-02-18T04:30:58.761Z,0.00
2019-02-18T04:31:58.758Z,0.00
2019-02-18T04:32:58.747Z,0.00
2019-02-18T04:33:58.731Z,0.00
2019-02-18T04:34:58.746Z,0.00
2019-02-18T04:35:58.715Z,0.00
2019-02-18T04:36:58.704Z,0.00
2019-02-18T04:37:58.695Z,0.00
2019-02-18T04:38:58.687Z,0.00
2019-02-18T04:39:58.677Z,0.00
2019-02-18T04:40:58.680Z,0.00
2019-02-18T04:41:58.649Z,0.00
2019-02-18T04:42:58.642Z,0.00
2019-02-18T04:43:58.647Z,0.00
2019-02-18T04:44:58.620Z,0.00
2019-02-18T04:45:58.641Z,0.00
2019-02-18T04:46:58.608Z,0.00
2019-02-18T04:47:58.587Z,0.00
2019-02-18T04:48:58.575Z,0.00
2019-02-18T04:49:58.570Z,0.00
2019-02-18T04:50:58.563Z,0.00
2019-02-18T04:51:58.569Z,0.00
2019-02-18T04:52:58.532Z,0.00
2019-02-18T04:53:58.526Z,0.00
2019-02-18T04:54:58.514Z,0.00
2019-02-18T04:55:58.509Z,0.00
2019-02-18T04:56:58.537Z,0.00
2019-02-18T04:57:58.492Z,0.00
2019-02-18T04:58:58.476Z,0.00
2019-02-18T04:59:58.478Z,0.00
2019-02-18T05:00:58.445Z,0.00
2019-02-18T05:01:58.456Z,0.00
2019-02-18T05:02:58.456Z,0.00
2019-02-18T05:03:58.425Z,0.00
2019-02-18T05:04:58.426Z,0.00
2019-02-18T05:05:58.399Z,0.00
2019-02-18T05:06:58.384Z,0.00
2019-02-18T05:07:58.408Z,0.00
2019-02-18T05:09:05.237Z,0.00
2019-02-18T05:09:59.359Z,0.00
2019-02-18T05:10:58.355Z,0.00
2019-02-18T05:11:58.331Z,0.00
2019-02-18T05:12:58.325Z,0.00
2019-02-18T05:13:58.330Z,0.00
2019-02-18T05:14:58.303Z,0.00
2019-02-18T05:15:58.300Z,0.00
2019-02-18T05:16:58.290Z,0.00
2019-02-18T05:17:58.276Z,0.00
2019-02-18T05:18:58.306Z,0.00
2019-02-18T05:19:58.252Z,0.00
2019-02-18T05:20:58.241Z,0.00
2019-02-18T05:21:58.238Z,0.00
2019-02-18T05:22:58.232Z,0.00
2019-02-18T05:23:58.213Z,0.00
2019-02-18T05:24:58.216Z,0.00
2019-02-18T05:25:58.194Z,0.00
2019-02-18T05:26:58.180Z,0.00
2019-02-18T05:27:58.178Z,0.00
2019-02-18T05:28:58.161Z,0.00
2019-02-18T05:29:58.176Z,0.00
2019-02-18T05:30:58.144Z,0.00
2019-02-18T05:31:58.127Z,0.00
2019-02-18T05:32:58.119Z,0.00
2019-02-18T05:33:58.107Z,0.00
2019-02-18T05:34:58.113Z,0.00
2019-02-18T05:35:58.092Z,0.00
2019-02-18T05:36:58.077Z,0.00
2019-02-18T05:37:58.061Z,0.00
2019-02-18T05:38:58.064Z,0.00
2019-02-18T05:39:58.078Z,0.00
2019-02-18T05:40:58.061Z,0.00
2019-02-18T05:41:58.028Z,0.00
2019-02-18T05:42:58.017Z,0.00
2019-02-18T05:43:58.005Z,0.00
2019-02-18T05:44:58.002Z,0.00
2019-02-18T05:45:58.006Z,0.00
2019-02-18T05:46:57.969Z,0.00
2019-02-18T05:47:57.964Z,0.00
2019-02-18T05:48:57.957Z,0.00
2019-02-18T05:49:57.943Z,0.00
2019-02-18T05:50:57.959Z,0.00
2019-02-18T05:51:57.924Z,0.00
2019-02-18T05:52:57.905Z,0.00
2019-02-18T05:53:57.901Z,0.00
2019-02-18T05:54:57.896Z,0.00
2019-02-18T05:55:57.875Z,0.00
2019-02-18T05:56:57.903Z,0.00
2019-02-18T05:57:57.869Z,0.00
2019-02-18T05:58:57.843Z,0.00
2019-02-18T05:59:57.842Z,0.00
2019-02-18T06:00:57.837Z,0.00
2019-02-18T06:01:57.845Z,0.00
2019-02-18T06:02:57.823Z,0.00
2019-02-18T06:04:00.054Z,0.00
2019-02-18T06:04:57.784Z,0.00
2019-02-18T06:05:57.769Z,0.00
2019-02-18T06:06:57.775Z,5.62
2019-02-18T06:07:57.761Z,5.62
2019-02-18T06:08:57.765Z,5.62
2019-02-18T06:09:57.731Z,5.62
2019-02-18T06:10:57.728Z,5.62
2019-02-18T06:11:57.714Z,5.62
2019-02-18T06:12:57.743Z,5.62
2019-02-18T06:13:57.700Z,11.25
2019-02-18T06:14:57.696Z,11.25
2019-02-18T06:15:57.667Z,11.25
2019-02-18T06:16:57.658Z,11.25
2019-02-18T06:17:57.667Z,16.88
2019-02-18T06:18:57.638Z,16.88
2019-02-18T06:19:57.634Z,16.88
2019-02-18T06:20:57.623Z,16.88
2019-02-18T06:21:57.613Z,22.50
2019-02-18T06:22:57.618Z,22.50
2019-02-18T06:23:57.581Z,22.50
2019-02-18T06:24:57.571Z,28.12
2019-02-18T06:25:57.577Z,28.12
2019-02-18T06:26:57.561Z,28.12
2019-02-18T06:27:57.561Z,33.75
2019-02-18T06:28:57.539Z,33.75
2019-02-18T06:29:57.556Z,33.75
2019-02-18T06:30:57.526Z,39.38
2019-02-18T06:31:57.508Z,39.38
2019-02-18T06:32:57.503Z,45.00
2019-02-18T06:33:57.522Z,50.62
2019-02-18T06:34:57.475Z,50.62
2019-02-18T06:35:57.487Z,50.62
2019-02-18T06:36:57.455Z,56.25
2019-02-18T06:37:57.459Z,56.25
2019-02-18T06:38:57.837Z,61.88
2019-02-18T06:39:57.449Z,61.88
2019-02-18T06:40:57.415Z,61.88
2019-02-18T06:41:57.409Z,67.50
2019-02-18T06:42:57.388Z,67.50
2019-02-18T06:43:57.389Z,73.12
2019-02-18T06:44:57.411Z,73.12
2019-02-18T06:45:57.364Z,78.75
2019-02-18T06:46:57.352Z,78.75
2019-02-18T06:47:57.338Z,84.38
2019-02-18T06:48:57.328Z,90.00
2019-02-18T06:49:57.316Z,95.62
2019-02-18T06:50:57.330Z,101.25
2019-02-18T06:51:57.301Z,118.12
2019-02-18T06:52:57.290Z,135.00
2019-02-18T06:53:57.297Z,151.88
2019-02-18T06:54:57.269Z,168.75
2019-02-18T06:55:57.255Z,180.00
2019-02-18T06:56:57.239Z,191.25
2019-02-18T06:57:57.240Z,180.00
2019-02-18T06:58:57.246Z,180.00
2019-02-18T06:59:57.217Z,191.25
2019-02-18T07:00:57.222Z,196.88
2019-02-18T07:01:57.192Z,208.12
2019-02-18T07:02:57.182Z,219.38
2019-02-18T07:03:57.177Z,241.88
2019-02-18T07:04:57.196Z,275.62
2019-02-18T07:05:57.163Z,286.88
2019-02-18T07:06:57.148Z,298.12
2019-02-18T07:07:57.127Z,298.12
2019-02-18T07:08:57.119Z,286.88
2019-02-18T07:09:57.103Z,275.62
2019-02-18T07:10:57.111Z,286.88
2019-02-18T07:11:58.082Z,320.62
2019-02-18T07:12:57.091Z,354.38
2019-02-18T07:13:57.062Z,393.75
2019-02-18T07:14:57.071Z,410.62
2019-02-18T07:15:57.047Z,444.38
2019-02-18T07:16:57.039Z,433.12
2019-02-18T07:17:57.041Z,393.75
2019-02-18T07:18:57.031Z,365.62
2019-02-18T07:19:57.019Z,360.00
2019-02-18T07:20:57.003Z,360.00
2019-02-18T07:21:56.994Z,343.12
2019-02-18T07:22:56.968Z,326.25
2019-02-18T07:23:56.978Z,326.25
2019-02-18T07:24:56.954Z,326.25
2019-02-18T07:25:56.968Z,337.50
2019-02-18T07:26:56.977Z,337.50
2019-02-18T07:27:56.913Z,343.12
2019-02-18T07:28:56.903Z,354.38
2019-02-18T07:29:56.905Z,360.00
2019-02-18T07:30:56.894Z,371.25
2019-02-18T07:31:56.872Z,376.88
2019-02-18T07:32:56.891Z,388.12
2019-02-18T07:33:56.852Z,399.38
2019-02-18T07:34:56.840Z,410.62
2019-02-18T07:35:56.849Z,416.25
2019-02-18T07:36:56.826Z,483.75
2019-02-18T07:37:56.835Z,562.50
2019-02-18T07:38:56.801Z,607.50
2019-02-18T07:40:01.661Z,641.25
2019-02-18T07:40:57.774Z,641.25
2019-02-18T07:41:56.760Z,601.88
2019-02-18T07:42:56.768Z,630.00
2019-02-18T07:43:56.773Z,618.75
2019-02-18T07:44:56.736Z,613.12
2019-02-18T07:45:56.722Z,669.38
2019-02-18T07:46:56.756Z,635.62
2019-02-18T07:47:56.730Z,703.12
2019-02-18T07:48:56.706Z,720.00
2019-02-18T07:49:56.693Z,641.25
2019-02-18T07:50:56.672Z,641.25
2019-02-18T07:51:56.657Z,697.50
2019-02-18T07:52:56.667Z,765.00
2019-02-18T07:53:56.635Z,804.38
2019-02-18T07:54:56.624Z,855.00
2019-02-18T07:55:56.623Z,838.12
2019-02-18T07:56:56.609Z,866.25
2019-02-18T07:57:56.629Z,916.88
2019-02-18T07:58:56.592Z,950.62
2019-02-18T07:59:56.571Z,967.50
2019-02-18T08:00:56.559Z,1001.25
2019-02-18T08:01:56.559Z,1001.25
2019-02-18T08:02:56.590Z,1018.12
2019-02-18T08:03:56.540Z,1029.38
2019-02-18T08:04:56.519Z,1018.12
2019-02-18T08:05:56.519Z,1040.62
2019-02-18T08:06:56.495Z,1080.00
2019-02-18T08:07:56.496Z,1080.00
2019-02-18T08:08:56.499Z,1119.38
2019-02-18T08:09:56.473Z,1141.88
2019-02-18T08:10:56.458Z,1113.75
2019-02-18T08:11:56.444Z,1113.75
2019-02-18T08:12:56.458Z,1147.50
2019-02-18T08:13:56.430Z,1226.25
2019-02-18T08:14:56.410Z,1220.62
2019-02-18T08:15:56.407Z,1237.50
2019-02-18T08:16:56.400Z,1243.12
2019-02-18T08:17:56.397Z,1288.12
2019-02-18T08:18:56.398Z,1299.38
2019-02-18T08:19:56.365Z,1265.62
2019-02-18T08:20:56.356Z,1293.75
2019-02-18T08:21:56.343Z,1321.88
2019-02-18T08:22:56.334Z,1344.38
2019-02-18T08:24:00.106Z,1321.88
2019-02-18T08:24:56.321Z,1299.38
2019-02-18T08:25:56.288Z,1355.62
2019-02-18T08:26:56.283Z,1445.62
2019-02-18T08:27:56.273Z,1462.50
2019-02-18T08:28:56.263Z,1456.88
2019-02-18T08:29:57.071Z,1417.50
2019-02-18T08:30:56.383Z,1423.12
2019-02-18T08:31:56.225Z,1406.25
2019-02-18T08:32:56.232Z,1451.25
2019-02-18T08:33:56.224Z,1485.00
2019-02-18T08:34:56.204Z,1558.12
2019-02-18T08:35:56.186Z,1530.00
2019-02-18T08:36:56.175Z,1468.12
2019-02-18T08:37:56.179Z,1501.88
2019-02-18T08:38:56.149Z,1507.50
2019-02-18T08:39:56.146Z,1513.12
2019-02-18T08:40:56.153Z,1530.00
2019-02-18T08:41:56.127Z,1507.50
2019-02-18T08:42:56.114Z,1490.62
2019-02-18T08:43:56.126Z,1490.62
2019-02-18T08:44:56.087Z,1513.12
2019-02-18T08:45:56.074Z,1563.75
2019-02-18T08:46:56.064Z,1569.38
2019-02-18T08:47:56.061Z,1625.62
2019-02-18T08:48:56.048Z,1670.62
2019-02-18T08:49:56.047Z,1648.12
2019-02-18T08:50:56.027Z,1715.62
2019-02-18T08:51:56.015Z,1687.50
2019-02-18T08:52:56.006Z,1715.62
2019-02-18T08:53:55.997Z,1726.88
2019-02-18T08:54:56.919Z,1732.50
2019-02-18T08:55:55.968Z,1743.75
2019-02-18T08:56:55.980Z,1738.12
2019-02-18T08:57:55.949Z,1755.00
2019-02-18T08:58:55.937Z,1726.88
2019-02-18T08:59:55.932Z,1721.25
2019-02-18T09:01:02.621Z,1738.12
2019-02-18T09:01:56.907Z,1816.88
2019-02-18T09:02:55.897Z,1856.25
2019-02-18T09:03:55.883Z,1856.25
2019-02-18T09:04:55.869Z,1805.62
2019-02-18T09:05:55.892Z,1788.75
2019-02-18T09:06:55.857Z,1895.62
2019-02-18T09:07:55.844Z,1861.88
2019-02-18T09:08:55.826Z,1811.25
2019-02-18T09:09:55.817Z,1794.38
2019-02-18T09:10:55.825Z,1828.12
2019-02-18T09:11:55.801Z,1861.88
2019-02-18T09:12:55.790Z,1884.38
2019-02-18T09:13:55.780Z,1890.00
2019-02-18T09:14:55.780Z,1822.50
2019-02-18T09:15:59.965Z,1788.75
2019-02-18T09:16:55.746Z,1811.25
2019-02-18T09:17:55.732Z,1878.75
2019-02-18T09:18:55.720Z,1923.75
2019-02-18T09:19:55.715Z,1929.38
2019-02-18T09:20:55.724Z,1940.62
2019-02-18T09:21:55.700Z,1980.00
2019-02-18T09:22:55.690Z,1968.75
2019-02-18T09:23:55.673Z,2019.38
2019-02-18T09:24:55.663Z,1957.50
2019-02-18T09:25:55.667Z,1912.50
2019-02-18T09:26:55.666Z,1935.00
2019-02-18T09:27:55.643Z,1974.38
2019-02-18T09:28:55.614Z,2008.12
2019-02-18T09:29:55.604Z,2070.00
2019-02-18T09:30:55.603Z,2081.25
2019-02-18T09:31:55.674Z,2019.38
2019-02-18T09:32:55.583Z,2002.50
2019-02-18T09:33:55.583Z,2008.12
2019-02-18T09:35:01.752Z,2070.00
2019-02-18T09:35:56.538Z,2137.50
2019-02-18T09:36:56.275Z,2143.12
2019-02-18T09:37:55.557Z,2143.12
2019-02-18T09:38:55.518Z,2103.75
2019-02-18T09:39:55.505Z,2008.12
2019-02-18T09:40:55.489Z,2053.12
2019-02-18T09:41:55.477Z,2148.75
2019-02-18T09:42:55.500Z,2143.12
2019-02-18T09:43:55.464Z,2233.12
2019-02-18T09:44:55.461Z,2266.88
2019-02-18T09:45:55.446Z,2199.38
2019-02-18T09:46:55.432Z,2120.62
2019-02-18T09:47:55.418Z,2036.25
2019-02-18T09:48:55.423Z,2103.75
2019-02-18T09:49:55.414Z,2188.12
2019-02-18T09:50:55.396Z,2210.62
2019-02-18T09:51:55.381Z,2278.12
2019-02-18T09:52:55.399Z,2306.25
2019-02-18T09:53:55.377Z,2261.25
2019-02-18T09:54:55.344Z,2289.38
2019-02-18T09:55:55.340Z,2216.25
2019-02-18T09:56:55.331Z,2171.25
2019-02-18T09:57:55.317Z,2227.50
2019-02-18T09:58:55.325Z,2148.75
2019-02-18T09:59:55.293Z,2154.38
2019-02-18T10:00:55.280Z,2227.50
2019-02-18T10:01:55.268Z,2250.00
2019-02-18T10:02:55.275Z,2345.62
2019-02-18T10:03:55.284Z,2306.25
2019-02-18T10:04:55.250Z,2216.25
2019-02-18T10:05:55.233Z,2176.88
2019-02-18T10:06:55.225Z,2193.75
2019-02-18T10:07:55.210Z,2261.25
2019-02-18T10:08:55.199Z,2250.00
2019-02-18T10:09:55.217Z,2261.25
2019-02-18T10:10:56.304Z,2238.75
2019-02-18T10:11:55.167Z,2193.75
2019-02-18T10:12:55.163Z,2233.12
2019-02-18T10:13:55.149Z,2323.12
2019-02-18T10:14:55.162Z,2401.88
2019-02-18T10:15:55.136Z,2452.50
2019-02-18T10:16:55.122Z,2503.12
2019-02-18T10:17:55.111Z,2407.50
2019-02-18T10:18:55.105Z,2250.00
2019-02-18T10:19:55.103Z,2227.50
2019-02-18T10:20:55.089Z,2356.88
2019-02-18T10:21:55.071Z,2345.62
2019-02-18T10:22:55.056Z,2368.12
2019-02-18T10:23:55.060Z,2463.75
2019-02-18T10:24:55.059Z,2418.75
2019-02-18T10:25:55.027Z,2340.00
2019-02-18T10:26:55.012Z,2362.50
2019-02-18T10:27:55.009Z,2407.50
2019-02-18T10:28:54.998Z,2424.38
2019-02-18T10:29:55.025Z,2435.62
2019-02-18T10:30:54.980Z,2379.38
2019-02-18T10:31:54.962Z,2469.38
2019-02-18T10:32:54.952Z,2497.50
2019-02-18T10:33:54.948Z,2480.62
2019-02-18T10:34:54.933Z,2407.50
2019-02-18T10:35:54.948Z,2379.38
2019-02-18T10:36:54.925Z,2328.75
2019-02-18T10:37:55.434Z,2385.00
2019-02-18T10:38:54.897Z,2536.88
2019-02-18T10:39:54.887Z,2587.50
2019-02-18T10:40:54.909Z,2643.75
2019-02-18T10:41:54.870Z,2598.75
2019-02-18T10:42:54.856Z,2536.88
2019-02-18T10:43:54.882Z,2486.25
2019-02-18T10:44:54.831Z,2531.25
2019-02-18T10:45:54.827Z,2531.25
2019-02-18T10:46:54.829Z,2469.38
2019-02-18T10:47:54.810Z,2458.12
2019-02-18T10:48:54.798Z,2463.75
2019-02-18T10:49:54.787Z,2446.88
2019-02-18T10:50:54.780Z,2514.38
2019-02-18T10:51:54.790Z,2525.62
2019-02-18T10:52:54.752Z,2446.88
2019-02-18T10:53:54.745Z,2446.88
2019-02-18T10:54:54.860Z,2446.88
2019-02-18T10:55:54.732Z,2446.88
2019-02-18T10:56:54.752Z,2469.38
2019-02-18T10:57:54.704Z,2441.25
2019-02-18T10:58:54.696Z,2486.25
2019-02-18T10:59:54.702Z,2548.12
2019-02-18T11:00:54.685Z,2508.75
2019-02-18T11:01:54.671Z,2548.12
2019-02-18T11:02:54.681Z,2520.00
2019-02-18T11:03:54.650Z,2514.38
2019-02-18T11:04:54.632Z,2536.88
2019-02-18T11:05:54.625Z,2677.50
2019-02-18T11:06:54.613Z,2626.88
2019-02-18T11:07:54.627Z,2480.62
2019-02-18T11:08:54.610Z,2407.50
2019-02-18T11:09:54.589Z,2379.38
2019-02-18T11:10:54.586Z,2486.25
2019-02-18T11:11:54.601Z,2598.75
2019-02-18T11:12:54.580Z,2615.62
2019-02-18T11:13:54.566Z,2587.50
2019-02-18T11:14:54.551Z,2542.50
2019-02-18T11:15:54.525Z,2503.12
2019-02-18T11:16:54.513Z,2475.00
2019-02-18T11:17:54.522Z,2570.62
2019-02-18T11:18:54.490Z,2604.38
2019-02-18T11:19:54.486Z,2486.25
2019-02-18T11:20:54.476Z,2328.75
2019-02-18T11:21:54.469Z,2401.88
2019-02-18T11:22:54.475Z,2486.25
2019-02-18T11:23:54.460Z,2413.12
2019-02-18T11:24:54.432Z,2424.38
2019-02-18T11:25:54.423Z,2581.88
2019-02-18T11:26:54.411Z,2649.38
2019-02-18T11:27:54.428Z,2503.12
2019-02-18T11:28:54.400Z,2531.25
2019-02-18T11:29:54.386Z,2548.12
2019-02-18T11:30:54.370Z,2559.38
2019-02-18T11:31:54.370Z,2542.50
2019-02-18T11:32:54.373Z,2480.62
2019-02-18T11:33:54.349Z,2497.50
2019-02-18T11:34:54.356Z,2520.00
2019-02-18T11:35:54.319Z,2469.38
2019-02-18T11:36:54.308Z,2475.00
2019-02-18T11:37:54.323Z,2542.50
2019-02-18T11:38:54.291Z,2694.38
2019-02-18T11:39:54.292Z,2716.88
2019-02-18T11:40:54.281Z,2559.38
2019-02-18T11:41:54.272Z,2463.75
2019-02-18T11:42:54.288Z,2514.38
2019-02-18T11:43:54.244Z,2593.12
2019-02-18T11:44:54.233Z,2570.62
2019-02-18T11:45:54.226Z,2486.25
2019-02-18T11:46:54.216Z,2514.38
2019-02-18T11:47:54.197Z,2418.75
2019-02-18T11:48:54.211Z,2407.50
2019-02-18T11:49:55.278Z,2508.75
2019-02-18T11:50:54.169Z,2520.00
2019-02-18T11:51:54.164Z,2497.50
2019-02-18T11:52:54.155Z,2565.00
2019-02-18T11:53:54.175Z,2559.38
2019-02-18T11:54:54.143Z,2469.38
2019-02-18T11:55:54.120Z,2536.88
2019-02-18T11:56:54.110Z,2520.00
2019-02-18T11:57:54.099Z,2373.75
2019-02-18T11:58:54.087Z,2385.00
2019-02-18T11:59:54.109Z,2514.38
2019-02-18T12:00:54.077Z,2576.25
2019-02-18T12:01:54.063Z,2536.88
2019-02-18T12:03:02.916Z,2503.12
2019-02-18T12:03:55.044Z,2542.50
2019-02-18T12:04:54.063Z,2497.50
2019-02-18T12:05:54.026Z,2418.75
2019-02-18T12:06:54.019Z,2413.12
2019-02-18T12:07:54.004Z,2446.88
2019-02-18T12:08:53.992Z,2508.75
2019-02-18T12:09:53.981Z,2536.88
2019-02-18T12:10:53.988Z,2480.62
2019-02-18T12:11:53.965Z,2446.88
2019-02-18T12:12:55.854Z,2508.75
2019-02-18T12:13:53.951Z,2570.62
2019-02-18T12:14:53.957Z,2548.12
2019-02-18T12:15:53.922Z,2570.62
2019-02-18T12:16:53.913Z,2503.12
2019-02-18T12:17:53.908Z,2452.50
2019-02-18T12:18:53.897Z,2508.75
2019-02-18T12:19:53.916Z,2508.75
2019-02-18T12:20:53.868Z,2458.12
2019-02-18T12:21:53.860Z,2368.12
2019-02-18T12:22:53.871Z,2351.25
2019-02-18T12:23:53.855Z,2413.12
2019-02-18T12:24:53.856Z,2385.00
2019-02-18T12:25:53.866Z,2385.00
2019-02-18T12:26:53.828Z,2441.25
2019-02-18T12:27:53.803Z,2418.75
2019-02-18T12:28:53.796Z,2356.88
2019-02-18T12:29:53.808Z,2385.00
2019-02-18T12:30:53.826Z,2503.12
2019-02-18T12:31:53.766Z,2458.12
2019-02-18T12:32:53.755Z,2424.38
2019-02-18T12:33:53.760Z,2430.00
2019-02-18T12:34:53.731Z,2480.62
2019-02-18T12:35:53.727Z,2452.50
2019-02-18T12:36:53.730Z,2385.00
2019-02-18T12:37:55.603Z,2458.12
2019-02-18T12:38:53.718Z,2452.50
2019-02-18T12:39:53.683Z,2345.62
2019-02-18T12:40:53.672Z,2379.38
2019-02-18T12:41:53.666Z,2385.00
2019-02-18T12:42:53.674Z,2379.38
2019-02-18T12:43:53.651Z,2233.12